Wortham, TX (76693)

7:21 PM CDT on October 31, 2014 (GMT -0500)
Amateur Radio Station KC5PID | Change Station
CLOSE
Current Station
Personal Weather Station
Location: Mexia, TX
Elevation: 507 ft
Nearby Weather Stations

Elev 507 ft 31.67 °N, 96.47 °W | Updated 9 seconds ago

Clear
Clear
60.4 °F
Feels Like 60.4 °F
N
4.9
Wind Variable Wind from North
Gusts 8.1 mph

Today
High -- | Low -- °F
--% Chance of Precip.
Yesterday
High -- | Low -- °F
Precip. -- in
7:41 AM 6:37 PM
First Quarter, 60% visible
Pressure 30.27 in
Visibility 10.0 miles
Clouds Clear
Dew Point 43 °F
Humidity 53%
Rainfall 0.00 in
Snow Depth Not available.
UV 0.0 out of 12
Pollen 5.10 out of 12
Air Quality Not available.
Flu Activity Not available.
METAR KLXY 010015Z AUTO 35005KT 10SM CLR 15/05 A3027 RMK AO2 T01500048

More Conditions Fewer Conditions

Pressure 30.27 in
Visibility 10.0 miles
Clouds Clear
Dew Point 43 °F
Humidity 53%
Rainfall 0.00 in
Snow Depth Not available.
UV 0.0 out of 12
Pollen 5.10 out of 12
Air Quality Not available.
Flu Activity Not available.
METAR KLXY 010015Z AUTO 35005KT 10SM CLR 15/05 A3027 RMK AO2 T01500048

More Conditions Fewer Conditions

10-Day Weather Forecast

Almanac

Astronomy

Oct. 31, 2014 Rise Set
Actual Time
Civil Twilight
Nautical Twilight
Astronomical Twilight
Moon
Length of Visible Light
Length of Day
Tomorrow will be .
, % of the Moon is Illuminated

Today's Extremes

State Highs State Lows

Community

WunderPhotos

Upload Photos

1,766,792 photos uploaded!

WunderBlogs® & News

Nearby

Air Quality

  Air Quality AQ Index Pollutant
Not available.

Snow Depth

Station Depth Elevation

Earthquake Activity

City Distance Mag. Time & Date
Minimum magnitude displayed is 2.5.

Coastal Water Temperatures

Place Temperature

Nearby Weather Stations